createdAt,value
2023-06-27T00:01:10.079Z,20.70
2023-06-27T00:03:15.055Z,20.70
2023-06-27T00:05:18.635Z,20.70
2023-06-27T00:07:28.780Z,20.70
2023-06-27T00:09:32.395Z,20.80
2023-06-27T00:11:36.117Z,20.70
2023-06-27T00:13:42.100Z,20.80
2023-06-27T00:15:46.272Z,20.80
2023-06-27T00:17:49.804Z,20.80
2023-06-27T00:19:59.303Z,20.80
2023-06-27T00:22:10.689Z,20.70
2023-06-27T00:24:14.145Z,20.80
2023-06-27T00:26:17.475Z,20.80
2023-06-27T00:28:20.774Z,20.60
2023-06-27T00:30:24.360Z,20.50
2023-06-27T00:32:28.144Z,20.50
2023-06-27T00:34:31.457Z,20.40
2023-06-27T00:36:36.077Z,20.50
2023-06-27T00:38:39.630Z,20.40
2023-06-27T00:40:42.963Z,20.40
2023-06-27T00:42:46.639Z,20.50
2023-06-27T00:44:49.986Z,20.20
2023-06-27T00:46:53.931Z,20.10
2023-06-27T00:48:57.248Z,20.10
2023-06-27T00:51:01.554Z,20.10
2023-06-27T00:53:06.913Z,20.00
2023-06-27T00:55:11.464Z,19.90
2023-06-27T00:57:14.813Z,19.80
2023-06-27T00:59:18.265Z,19.70
2023-06-27T01:01:22.573Z,19.70
2023-06-27T01:03:26.127Z,19.80
2023-06-27T01:05:29.509Z,19.70
2023-06-27T01:07:39.062Z,19.60
2023-06-27T01:09:50.876Z,19.50
2023-06-27T01:12:01.323Z,19.60
2023-06-27T01:14:05.871Z,19.60
2023-06-27T01:16:10.737Z,19.40
2023-06-27T01:18:15.254Z,19.30
2023-06-27T01:20:20.910Z,19.40
2023-06-27T01:22:30.650Z,19.40
2023-06-27T01:24:38.056Z,19.30
2023-06-27T01:26:41.479Z,19.40
2023-06-27T01:28:44.825Z,19.30
2023-06-27T01:30:48.122Z,19.40
2023-06-27T01:32:57.109Z,19.30
2023-06-27T01:35:06.263Z,19.40
2023-06-27T01:37:16.961Z,19.50
2023-06-27T01:39:24.250Z,19.50
2023-06-27T01:41:32.611Z,19.40
2023-06-27T01:43:37.698Z,19.40
2023-06-27T01:45:42.289Z,19.40
2023-06-27T01:47:47.004Z,19.30
2023-06-27T01:49:50.740Z,19.40
2023-06-27T01:51:57.168Z,19.50
2023-06-27T01:54:00.708Z,19.60
2023-06-27T01:56:03.980Z,19.60
2023-06-27T01:58:09.081Z,19.50
2023-06-27T02:00:13.222Z,19.50
2023-06-27T02:02:16.477Z,19.50
2023-06-27T02:04:19.873Z,19.40
2023-06-27T02:06:23.248Z,19.40
2023-06-27T02:08:26.610Z,19.20
2023-06-27T02:10:30.054Z,19.20
2023-06-27T02:12:33.398Z,19.30
2023-06-27T02:14:38.179Z,19.20
2023-06-27T02:16:41.490Z,19.00
2023-06-27T02:18:44.949Z,19.00
2023-06-27T02:20:48.338Z,19.10
2023-06-27T02:22:51.654Z,19.00
2023-06-27T02:24:55.118Z,18.90
2023-06-27T02:26:58.495Z,18.90
2023-06-27T02:29:01.765Z,19.00
2023-06-27T02:31:06.560Z,19.10
2023-06-27T02:33:10.103Z,19.10
2023-06-27T02:35:16.515Z,19.10
2023-06-27T02:37:20.089Z,19.10
2023-06-27T02:39:23.319Z,19.20
2023-06-27T02:41:27.043Z,19.00
2023-06-27T02:43:30.414Z,18.90
2023-06-27T02:45:33.764Z,18.80
2023-06-27T02:47:38.822Z,18.90
2023-06-27T02:49:43.256Z,18.80
2023-06-27T02:51:46.664Z,18.90
2023-06-27T02:53:50.293Z,18.70
2023-06-27T02:55:53.613Z,18.70
2023-06-27T02:57:57.018Z,18.60
2023-06-27T03:00:00.386Z,18.70
2023-06-27T03:02:04.208Z,18.70
2023-06-27T03:04:19.281Z,18.60
2023-06-27T03:06:23.884Z,18.60
2023-06-27T03:08:27.249Z,18.60
2023-06-27T03:10:30.900Z,18.50
2023-06-27T03:12:34.556Z,18.60
2023-06-27T03:14:37.849Z,18.50
2023-06-27T03:16:41.241Z,18.40
2023-06-27T03:18:44.539Z,18.40
2023-06-27T03:20:49.417Z,18.50
2023-06-27T03:22:52.671Z,18.40
2023-06-27T03:24:55.870Z,18.40
2023-06-27T03:26:59.335Z,18.40
2023-06-27T03:29:02.730Z,18.30
2023-06-27T03:31:06.108Z,18.40
2023-06-27T03:33:09.482Z,18.40
2023-06-27T03:35:12.823Z,18.40
2023-06-27T03:37:17.515Z,18.50
2023-06-27T03:39:21.120Z,18.50
2023-06-27T03:41:24.614Z,18.40
2023-06-27T03:43:28.056Z,18.50
2023-06-27T03:45:31.529Z,18.30
2023-06-27T03:47:35.826Z,18.40
2023-06-27T03:49:39.310Z,18.40
2023-06-27T03:51:42.967Z,18.30
2023-06-27T03:53:47.936Z,18.40
2023-06-27T03:55:51.740Z,18.40
2023-06-27T03:57:55.052Z,18.50
2023-06-27T03:59:58.353Z,18.40
2023-06-27T04:02:01.854Z,18.60
2023-06-27T04:04:05.453Z,18.60
2023-06-27T04:06:12.095Z,18.70
2023-06-27T04:08:15.488Z,18.90
2023-06-27T04:10:20.606Z,19.00
2023-06-27T04:12:24.012Z,19.20
2023-06-27T04:14:29.181Z,19.20
2023-06-27T04:16:32.751Z,19.20
2023-06-27T04:18:36.327Z,19.40
2023-06-27T04:20:40.044Z,19.40
2023-06-27T04:22:43.395Z,19.30
2023-06-27T04:24:46.702Z,19.50
2023-06-27T04:26:51.424Z,19.70
2023-06-27T04:28:54.746Z,19.80
2023-06-27T04:30:58.151Z,19.80
2023-06-27T04:33:02.304Z,19.80
2023-06-27T04:35:06.257Z,20.00
2023-06-27T04:37:09.620Z,20.00
2023-06-27T04:39:13.254Z,20.00
2023-06-27T04:41:16.551Z,20.00
2023-06-27T04:43:21.377Z,19.90
2023-06-27T04:45:24.776Z,20.00
2023-06-27T04:47:28.535Z,20.20
2023-06-27T04:49:31.991Z,20.30
2023-06-27T04:51:35.243Z,20.30
2023-06-27T04:53:38.560Z,20.40
2023-06-27T04:55:42.351Z,20.50
2023-06-27T04:57:46.003Z,20.60
2023-06-27T04:59:50.846Z,20.40
2023-06-27T05:01:54.423Z,20.30
2023-06-27T05:04:05.370Z,20.70
2023-06-27T05:06:08.960Z,20.90
2023-06-27T05:08:12.529Z,21.00
2023-06-27T05:10:16.002Z,21.10
2023-06-27T05:12:19.410Z,21.10
2023-06-27T05:14:22.686Z,21.20
2023-06-27T05:16:27.398Z,21.40
2023-06-27T05:18:30.983Z,21.50
2023-06-27T05:20:34.337Z,21.60
2023-06-27T05:22:37.678Z,21.70
2023-06-27T05:24:41.551Z,21.60
2023-06-27T05:26:45.010Z,21.60
2023-06-27T05:28:48.311Z,21.60
2023-06-27T05:30:51.671Z,21.70
2023-06-27T05:32:56.585Z,21.70
2023-06-27T05:34:59.903Z,21.80
2023-06-27T05:37:03.336Z,22.00
2023-06-27T05:39:06.860Z,22.00
2023-06-27T05:41:10.272Z,22.20
2023-06-27T05:43:13.646Z,21.90
2023-06-27T05:45:18.878Z,22.00
2023-06-27T05:47:22.719Z,21.90
2023-06-27T05:49:27.416Z,22.10
2023-06-27T05:51:30.819Z,22.10
2023-06-27T05:53:34.203Z,22.20
2023-06-27T05:55:37.505Z,22.30
2023-06-27T05:57:41.020Z,22.60
2023-06-27T05:59:44.363Z,22.90
2023-06-27T06:01:47.878Z,22.90
2023-06-27T06:03:51.577Z,22.90
2023-06-27T06:05:56.410Z,22.70
2023-06-27T06:08:00.295Z,22.90
2023-06-27T06:10:03.726Z,22.80
2023-06-27T06:12:07.605Z,22.90
2023-06-27T06:14:10.890Z,22.70
2023-06-27T06:16:14.132Z,22.70
2023-06-27T06:18:17.366Z,23.10
2023-06-27T06:20:21.249Z,23.40
2023-06-27T06:22:25.978Z,23.20
2023-06-27T06:24:29.780Z,23.70
2023-06-27T06:26:33.060Z,23.90
2023-06-27T06:28:36.483Z,24.20
2023-06-27T06:30:39.876Z,24.40
2023-06-27T06:32:43.273Z,24.80
2023-06-27T06:34:46.754Z,25.00
2023-06-27T06:36:50.129Z,25.50
2023-06-27T06:38:55.057Z,25.80
2023-06-27T06:40:58.418Z,26.10
2023-06-27T06:43:01.857Z,25.90
2023-06-27T06:45:06.082Z,25.80
2023-06-27T06:47:09.932Z,25.70
2023-06-27T06:49:13.355Z,25.70
2023-06-27T06:51:16.747Z,25.80
2023-06-27T06:53:20.158Z,25.80
2023-06-27T06:55:24.996Z,25.30
2023-06-27T06:57:28.470Z,25.20
2023-06-27T06:59:31.943Z,25.20
2023-06-27T07:01:35.310Z,24.90
2023-06-27T07:03:38.770Z,25.00
2023-06-27T07:05:43.587Z,24.80
2023-06-27T07:07:47.195Z,25.00
2023-06-27T07:09:50.642Z,24.80
2023-06-27T07:11:55.369Z,25.10
2023-06-27T07:13:59.958Z,25.10
2023-06-27T07:16:03.724Z,25.00
2023-06-27T07:18:07.193Z,25.00
2023-06-27T07:20:13.247Z,25.10
2023-06-27T07:22:16.652Z,25.10
2023-06-27T07:24:20.158Z,25.10
2023-06-27T07:26:23.514Z,24.60
2023-06-27T07:28:28.162Z,25.10
2023-06-27T07:30:31.971Z,25.30
2023-06-27T07:32:35.248Z,25.00
2023-06-27T07:34:38.775Z,25.10
2023-06-27T07:36:42.179Z,25.40
2023-06-27T07:38:45.734Z,26.00
2023-06-27T07:40:49.127Z,26.70
2023-06-27T07:42:53.028Z,27.30
2023-06-27T07:44:57.849Z,27.80
2023-06-27T07:47:01.325Z,28.10
2023-06-27T07:49:04.758Z,28.60
2023-06-27T07:51:08.131Z,28.80
2023-06-27T07:53:11.472Z,29.00
2023-06-27T07:55:14.717Z,28.90
2023-06-27T07:57:17.958Z,28.90
2023-06-27T07:59:25.337Z,28.80
2023-06-27T08:01:30.061Z,28.80
2023-06-27T08:03:33.518Z,28.40
2023-06-27T08:05:41.544Z,28.30
2023-06-27T08:07:46.416Z,28.40
2023-06-27T08:09:49.860Z,28.20
2023-06-27T08:11:53.454Z,27.90
2023-06-27T08:13:56.897Z,27.70
2023-06-27T08:16:00.246Z,27.30
2023-06-27T08:18:07.175Z,26.60
2023-06-27T08:20:11.522Z,26.30
2023-06-27T08:22:14.818Z,26.10
2023-06-27T08:24:18.184Z,25.70
2023-06-27T08:26:21.677Z,25.40
2023-06-27T08:28:25.073Z,25.20
2023-06-27T08:30:29.522Z,24.80
2023-06-27T08:32:33.438Z,24.60
2023-06-27T08:34:40.334Z,24.20
2023-06-27T08:36:45.639Z,24.00
2023-06-27T08:38:50.706Z,23.60
2023-06-27T08:40:56.275Z,22.90
2023-06-27T08:42:59.750Z,22.70
2023-06-27T08:45:03.803Z,22.40
2023-06-27T08:47:10.530Z,21.90
2023-06-27T08:49:20.825Z,21.40
2023-06-27T08:51:26.859Z,21.60
2023-06-27T08:53:32.116Z,21.50
2023-06-27T08:55:41.938Z,21.40
2023-06-27T08:57:48.226Z,21.30
2023-06-27T08:59:51.884Z,21.40
2023-06-27T09:01:57.258Z,21.40
2023-06-27T09:04:01.981Z,21.40
2023-06-27T09:06:06.965Z,21.60
2023-06-27T09:08:11.996Z,21.40
2023-06-27T09:10:17.471Z,21.60
2023-06-27T09:12:20.963Z,21.90
2023-06-27T09:14:24.458Z,22.30
2023-06-27T09:16:28.339Z,22.70
2023-06-27T09:18:31.839Z,23.00
2023-06-27T09:20:35.750Z,23.30
2023-06-27T09:22:40.788Z,23.30
2023-06-27T09:24:48.693Z,23.50
2023-06-27T09:26:52.111Z,23.50
2023-06-27T09:28:55.471Z,23.60
2023-06-27T09:31:00.070Z,23.70
2023-06-27T09:33:03.534Z,23.60
2023-06-27T09:35:07.685Z,23.70
2023-06-27T09:39:18.307Z,23.20
2023-06-27T09:41:23.302Z,23.60
2023-06-27T09:43:26.529Z,23.50
2023-06-27T09:45:31.963Z,22.60
2023-06-27T09:47:38.793Z,22.60
2023-06-27T09:49:45.145Z,22.90
2023-06-27T09:51:51.295Z,22.90
2023-06-27T09:53:56.308Z,22.90
2023-06-27T09:56:00.814Z,23.00
2023-06-27T09:58:06.012Z,22.70
2023-06-27T10:00:11.228Z,22.60
2023-06-27T10:02:15.292Z,22.60
2023-06-27T10:04:18.720Z,22.70
2023-06-27T10:06:22.831Z,23.00
2023-06-27T10:08:27.174Z,23.00
2023-06-27T10:10:31.922Z,23.30
2023-06-27T10:12:35.728Z,23.50
2023-06-27T10:14:40.857Z,23.40
2023-06-27T10:16:45.640Z,23.70
2023-06-27T10:18:49.999Z,23.80
2023-06-27T10:20:56.025Z,23.80
2023-06-27T10:23:00.563Z,24.00
2023-06-27T10:25:07.374Z,24.10
2023-06-27T10:27:14.220Z,24.30
2023-06-27T10:29:18.043Z,23.90
2023-06-27T10:31:44.373Z,24.00
2023-06-27T10:33:52.317Z,24.40
2023-06-27T10:35:59.750Z,24.40
2023-06-27T10:38:11.241Z,24.50
2023-06-27T10:40:15.969Z,24.50
2023-06-27T10:42:32.634Z,24.80
2023-06-27T10:44:52.269Z,24.70
2023-06-27T10:47:31.412Z,25.10
2023-06-27T10:49:37.191Z,25.60
2023-06-27T10:51:43.144Z,25.60
2023-06-27T10:54:06.481Z,25.90
2023-06-27T10:56:19.860Z,25.70
2023-06-27T10:58:28.553Z,25.70
2023-06-27T11:00:34.002Z,25.50
2023-06-27T11:02:43.041Z,25.10
2023-06-27T11:04:48.348Z,24.80
2023-06-27T11:06:51.867Z,24.80
2023-06-27T11:08:58.059Z,24.90
2023-06-27T11:11:06.709Z,25.00
2023-06-27T11:13:23.401Z,24.90
2023-06-27T11:15:26.885Z,24.90
2023-06-27T11:17:30.367Z,24.90
2023-06-27T11:19:40.373Z,24.70
2023-06-27T11:21:44.117Z,24.20
2023-06-27T11:23:47.532Z,24.10
2023-06-27T11:25:51.555Z,23.80
2023-06-27T11:27:59.271Z,23.80
2023-06-27T11:30:02.724Z,23.60
2023-06-27T11:32:06.790Z,23.70
2023-06-27T11:34:10.232Z,23.90
2023-06-27T11:36:14.940Z,23.80
2023-06-27T11:38:18.466Z,23.70
2023-06-27T11:40:22.033Z,23.60
2023-06-27T11:42:35.146Z,23.30
2023-06-27T11:44:38.579Z,23.20
2023-06-27T11:46:49.519Z,23.10
2023-06-27T11:48:53.117Z,22.90
2023-06-27T11:51:06.675Z,22.50
2023-06-27T11:53:11.421Z,22.30
2023-06-27T11:55:14.901Z,22.40
2023-06-27T11:57:19.384Z,22.10
2023-06-27T11:59:32.049Z,21.90
2023-06-27T12:01:42.395Z,21.90
2023-06-27T12:03:49.837Z,21.90
2023-06-27T12:05:54.145Z,21.60
2023-06-27T12:08:04.126Z,21.70
2023-06-27T12:10:09.927Z,21.80
2023-06-27T12:12:13.330Z,22.20
2023-06-27T12:14:24.042Z,22.20
2023-06-27T12:16:29.218Z,22.20
2023-06-27T12:18:33.730Z,22.40
2023-06-27T12:20:44.745Z,22.40
2023-06-27T12:22:48.163Z,22.40
2023-06-27T12:24:51.525Z,22.50
2023-06-27T12:26:56.273Z,22.80
2023-06-27T12:29:00.440Z,22.70
2023-06-27T12:31:03.871Z,22.80
2023-06-27T12:33:08.242Z,22.50
2023-06-27T12:35:18.753Z,22.50
2023-06-27T12:37:24.213Z,22.80
2023-06-27T12:39:27.584Z,22.80
2023-06-27T12:41:31.330Z,22.60
2023-06-27T12:43:36.427Z,22.60
2023-06-27T12:45:44.231Z,22.70
2023-06-27T12:47:48.866Z,22.70
2023-06-27T12:49:52.279Z,22.60
2023-06-27T12:51:55.796Z,22.50
2023-06-27T12:53:59.159Z,22.30
2023-06-27T12:56:03.987Z,22.10
2023-06-27T12:58:11.113Z,22.10
2023-06-27T13:00:21.150Z,22.10
2023-06-27T13:02:24.708Z,22.00
2023-06-27T13:04:30.030Z,21.90
2023-06-27T13:06:33.485Z,21.80
2023-06-27T13:08:36.869Z,21.80
2023-06-27T13:10:40.627Z,21.70
2023-06-27T13:12:44.163Z,21.80
2023-06-27T13:14:47.687Z,21.80
2023-06-27T13:16:52.705Z,21.90
2023-06-27T13:18:56.074Z,21.90
2023-06-27T13:21:04.819Z,21.60
2023-06-27T13:23:08.112Z,21.70
2023-06-27T13:25:11.721Z,21.70
2023-06-27T13:27:15.140Z,21.70
2023-06-27T13:29:18.638Z,21.50
2023-06-27T13:31:22.022Z,21.50
2023-06-27T13:33:26.982Z,21.60
2023-06-27T13:35:30.370Z,21.70
2023-06-27T13:37:48.537Z,21.80
2023-06-27T13:39:59.919Z,21.80
2023-06-27T13:42:03.549Z,21.80
2023-06-27T13:44:07.027Z,21.90
2023-06-27T13:46:10.321Z,21.90
2023-06-27T13:48:13.861Z,21.50
2023-06-27T13:50:19.055Z,21.70
2023-06-27T13:52:22.345Z,21.90
2023-06-27T13:54:26.036Z,22.10
2023-06-27T13:56:29.753Z,22.20
2023-06-27T13:58:33.432Z,22.10
2023-06-27T14:00:40.405Z,22.00
2023-06-27T14:02:44.138Z,21.80
2023-06-27T14:04:47.674Z,21.90
2023-06-27T14:06:54.195Z,21.80
2023-06-27T14:08:57.690Z,21.80
2023-06-27T14:11:04.949Z,21.60
2023-06-27T14:13:08.687Z,21.50
2023-06-27T14:15:12.768Z,21.60
2023-06-27T14:17:16.861Z,21.60
2023-06-27T14:19:20.467Z,21.60
2023-06-27T14:21:25.592Z,21.60
2023-06-27T14:23:31.173Z,21.50
2023-06-27T14:25:34.647Z,21.30
2023-06-27T14:27:38.344Z,21.00
2023-06-27T14:29:41.817Z,21.00
2023-06-27T14:31:45.615Z,21.20
2023-06-27T14:33:48.934Z,21.30
2023-06-27T14:35:53.962Z,21.40
2023-06-27T14:37:57.440Z,21.40
2023-06-27T14:40:02.376Z,21.20
2023-06-27T14:42:06.898Z,21.20
2023-06-27T14:44:10.610Z,21.10
2023-06-27T14:46:18.194Z,21.00
2023-06-27T14:48:23.038Z,21.00
2023-06-27T14:50:26.718Z,20.80
2023-06-27T14:52:30.310Z,20.70
2023-06-27T14:54:33.823Z,20.60
2023-06-27T14:56:39.165Z,20.70
2023-06-27T14:58:42.613Z,20.70
2023-06-27T15:00:46.647Z,20.70
2023-06-27T15:02:50.836Z,20.70
2023-06-27T15:04:54.635Z,20.90
2023-06-27T15:06:58.286Z,21.10
2023-06-27T15:09:01.859Z,21.10
2023-06-27T15:11:05.467Z,21.20
2023-06-27T15:13:10.264Z,21.30
2023-06-27T15:15:13.879Z,21.20
2023-06-27T15:17:17.691Z,21.00
2023-06-27T15:19:25.261Z,20.90
2023-06-27T15:21:28.633Z,21.00
2023-06-27T15:23:38.500Z,21.10
2023-06-27T15:25:43.304Z,21.10
2023-06-27T15:27:46.800Z,21.10
2023-06-27T15:29:51.741Z,21.00
2023-06-27T15:31:55.598Z,21.10
2023-06-27T15:33:58.953Z,21.20
2023-06-27T15:36:02.253Z,21.10
2023-06-27T15:38:06.545Z,21.10
2023-06-27T15:40:11.274Z,20.80
2023-06-27T15:42:14.762Z,20.70
2023-06-27T15:44:18.177Z,20.50
2023-06-27T15:46:22.893Z,20.20
2023-06-27T15:48:27.014Z,20.30
2023-06-27T15:50:34.401Z,20.30
2023-06-27T15:52:41.678Z,20.30
2023-06-27T15:54:48.512Z,20.40
2023-06-27T15:56:51.825Z,20.60
2023-06-27T15:58:55.335Z,20.90
2023-06-27T16:00:59.121Z,21.00
2023-06-27T16:03:04.009Z,21.00
2023-06-27T16:05:07.854Z,20.90
2023-06-27T16:07:11.609Z,20.90
2023-06-27T16:09:15.044Z,21.00
2023-06-27T16:11:18.413Z,20.70
2023-06-27T16:13:21.840Z,20.90
2023-06-27T16:15:28.702Z,20.90
2023-06-27T16:17:32.170Z,20.90
2023-06-27T16:19:37.205Z,20.80
2023-06-27T16:21:41.750Z,21.00
2023-06-27T16:23:45.458Z,20.90
2023-06-27T16:25:49.136Z,20.80
2023-06-27T16:27:52.562Z,20.70
2023-06-27T16:29:55.966Z,20.40
2023-06-27T16:31:59.333Z,20.30
2023-06-27T16:34:02.698Z,20.40
2023-06-27T16:36:08.163Z,20.70
2023-06-27T16:38:12.342Z,20.70
2023-06-27T16:40:16.660Z,20.60
2023-06-27T16:42:20.034Z,20.90
2023-06-27T16:44:23.389Z,21.00
2023-06-27T16:46:30.729Z,20.90
2023-06-27T16:48:34.033Z,20.90
2023-06-27T16:50:37.983Z,21.10
2023-06-27T16:52:42.667Z,21.20
2023-06-27T16:54:46.181Z,20.90
2023-06-27T16:56:49.660Z,21.00
2023-06-27T16:58:52.960Z,21.30
2023-06-27T17:00:56.524Z,21.10
2023-06-27T17:03:00.247Z,21.30
2023-06-27T17:05:04.823Z,21.30
2023-06-27T17:07:08.305Z,21.40
2023-06-27T17:09:13.316Z,21.40
2023-06-27T17:11:16.698Z,21.30
2023-06-27T17:13:20.479Z,21.10
2023-06-27T17:15:23.875Z,21.00
2023-06-27T17:17:27.295Z,21.10
2023-06-27T17:19:31.069Z,21.10
2023-06-27T17:21:34.368Z,20.90
2023-06-27T17:23:37.862Z,20.80
2023-06-27T17:25:42.866Z,20.50
2023-06-27T17:27:46.466Z,20.60
2023-06-27T17:29:49.889Z,20.40
2023-06-27T17:31:53.285Z,20.40
2023-06-27T17:33:56.642Z,20.60
2023-06-27T17:36:00.051Z,20.60
2023-06-27T17:38:03.511Z,20.40
2023-06-27T17:40:08.029Z,20.40
2023-06-27T17:42:13.012Z,20.40
2023-06-27T17:44:16.398Z,20.50
2023-06-27T17:46:20.985Z,20.30
2023-06-27T17:48:24.625Z,20.30
2023-06-27T17:50:28.005Z,20.20
2023-06-27T17:52:31.300Z,20.20
2023-06-27T17:54:34.611Z,20.20
2023-06-27T17:56:37.946Z,20.20
2023-06-27T17:58:42.938Z,20.20
2023-06-27T18:00:46.606Z,20.00
2023-06-27T18:02:50.463Z,20.10
2023-06-27T18:04:54.208Z,20.10
2023-06-27T18:06:57.607Z,20.10
2023-06-27T18:09:00.969Z,19.90
2023-06-27T18:11:04.540Z,20.00
2023-06-27T18:13:08.259Z,20.00
2023-06-27T18:15:13.296Z,20.00
2023-06-27T18:17:16.662Z,20.00
2023-06-27T18:19:23.556Z,19.90
2023-06-27T18:21:30.841Z,19.90
2023-06-27T18:23:34.442Z,19.60
2023-06-27T18:25:37.937Z,19.70
2023-06-27T18:27:43.704Z,19.70
2023-06-27T18:29:50.916Z,19.70
2023-06-27T18:31:55.939Z,19.60
2023-06-27T18:34:02.685Z,19.60
2023-06-27T18:36:06.784Z,19.50
2023-06-27T18:38:10.175Z,19.50
2023-06-27T18:40:14.414Z,19.50
2023-06-27T18:42:17.985Z,19.50
2023-06-27T18:44:21.292Z,19.50
2023-06-27T18:46:24.906Z,19.40
2023-06-27T18:48:29.689Z,19.40
2023-06-27T18:50:33.106Z,19.40
2023-06-27T18:52:36.713Z,19.30
2023-06-27T18:54:40.268Z,19.20
2023-06-27T18:56:43.728Z,19.20
2023-06-27T18:58:47.171Z,19.10
2023-06-27T19:00:50.670Z,19.10
2023-06-27T19:02:53.951Z,19.10
2023-06-27T19:04:58.858Z,19.10
2023-06-27T19:07:02.346Z,18.90
2023-06-27T19:09:05.880Z,18.90
2023-06-27T19:11:09.217Z,18.90
2023-06-27T19:13:13.276Z,18.90
2023-06-27T19:15:18.369Z,19.00
2023-06-27T19:17:21.686Z,19.00
2023-06-27T19:19:25.600Z,18.80
2023-06-27T19:21:30.913Z,18.70
2023-06-27T19:23:34.551Z,18.70
2023-06-27T19:25:37.920Z,18.70
2023-06-27T19:27:41.455Z,18.80
2023-06-27T19:29:44.840Z,18.60
2023-06-27T19:31:48.879Z,18.50
2023-06-27T19:33:54.248Z,18.50
2023-06-27T19:35:59.567Z,18.50
2023-06-27T19:38:04.352Z,18.50
2023-06-27T19:40:08.954Z,18.60
2023-06-27T19:42:12.383Z,18.70
2023-06-27T19:44:15.964Z,18.70
2023-06-27T19:46:19.266Z,18.70
2023-06-27T19:48:22.767Z,18.80
2023-06-27T19:50:26.116Z,18.80
2023-06-27T19:52:30.432Z,18.70
2023-06-27T19:54:35.199Z,18.70
2023-06-27T19:56:38.610Z,18.70
2023-06-27T19:58:41.934Z,18.70
2023-06-27T20:00:45.574Z,18.60
2023-06-27T20:02:52.666Z,18.70
2023-06-27T20:04:56.020Z,18.60
2023-06-27T20:06:59.542Z,18.60
2023-06-27T20:09:03.001Z,18.40
2023-06-27T20:11:07.732Z,18.50
2023-06-27T20:13:11.536Z,18.50
2023-06-27T20:15:15.062Z,18.70
2023-06-27T20:17:18.838Z,18.70
2023-06-27T20:19:22.550Z,18.70
2023-06-27T20:21:27.461Z,18.60
2023-06-27T20:23:30.778Z,18.70
2023-06-27T20:25:34.150Z,18.80
2023-06-27T20:27:38.893Z,18.70
2023-06-27T20:29:42.247Z,18.80
2023-06-27T20:31:45.710Z,18.70
2023-06-27T20:33:49.157Z,18.70
2023-06-27T20:35:52.583Z,18.70
2023-06-27T20:37:56.534Z,18.90
2023-06-27T20:39:59.935Z,18.90
2023-06-27T20:42:04.085Z,18.90
2023-06-27T20:44:09.718Z,18.60
2023-06-27T20:46:13.490Z,18.50
2023-06-27T20:48:17.034Z,18.40
2023-06-27T20:50:20.469Z,18.30
2023-06-27T20:52:23.789Z,18.40
2023-06-27T20:54:27.375Z,18.50
2023-06-27T20:56:30.961Z,18.40
2023-06-27T20:58:34.404Z,18.40
2023-06-27T21:00:40.531Z,18.40
2023-06-27T21:02:44.191Z,18.40
2023-06-27T21:04:47.705Z,18.50
2023-06-27T21:06:51.168Z,18.70
2023-06-27T21:08:54.611Z,18.50
2023-06-27T21:10:57.978Z,18.40
2023-06-27T21:13:01.383Z,18.40
2023-06-27T21:15:05.173Z,18.50
2023-06-27T21:17:10.101Z,18.40
2023-06-27T21:19:13.611Z,18.40
2023-06-27T21:21:17.138Z,18.50
2023-06-27T21:23:20.690Z,18.40
2023-06-27T21:25:23.983Z,18.30
2023-06-27T21:27:41.583Z,18.30
2023-06-27T21:29:50.766Z,18.30
2023-06-27T21:31:54.097Z,18.30
2023-06-27T21:33:58.952Z,18.30
2023-06-27T21:36:02.275Z,18.20
2023-06-27T21:38:05.782Z,18.20
2023-06-27T21:40:11.106Z,18.30
2023-06-27T21:42:16.409Z,18.20
2023-06-27T21:44:19.743Z,18.10
2023-06-27T21:46:26.802Z,18.10
2023-06-27T21:48:30.326Z,18.10
2023-06-27T21:50:35.820Z,18.00
2023-06-27T21:52:39.217Z,18.00
2023-06-27T21:54:42.564Z,18.00
2023-06-27T21:56:45.945Z,17.90
2023-06-27T21:58:49.404Z,18.00
2023-06-27T22:00:52.826Z,18.00
2023-06-27T22:02:56.516Z,17.90
2023-06-27T22:05:00.708Z,17.90
2023-06-27T22:07:06.510Z,17.90
2023-06-27T22:09:10.084Z,17.90
2023-06-27T22:11:13.368Z,17.90
2023-06-27T22:13:16.660Z,18.00
2023-06-27T22:15:20.216Z,17.80
2023-06-27T22:17:23.833Z,17.80
2023-06-27T22:19:27.261Z,17.80
2023-06-27T22:21:30.906Z,17.80
2023-06-27T22:23:36.111Z,17.90
2023-06-27T22:25:39.599Z,17.90
2023-06-27T22:27:42.862Z,18.00
2023-06-27T22:29:46.354Z,18.00
2023-06-27T22:31:49.742Z,17.90
2023-06-27T22:33:55.044Z,18.00
2023-06-27T22:35:58.456Z,17.90
2023-06-27T22:38:01.863Z,18.00
2023-06-27T22:40:07.528Z,17.90
2023-06-27T22:42:11.580Z,18.00
2023-06-27T22:44:14.949Z,18.00
2023-06-27T22:46:18.302Z,18.00
2023-06-27T22:48:22.023Z,18.10
2023-06-27T22:50:25.265Z,18.00
2023-06-27T22:52:29.704Z,17.90
2023-06-27T22:54:33.207Z,18.10
2023-06-27T22:56:38.022Z,18.10
2023-06-27T22:58:42.975Z,18.20
2023-06-27T23:00:46.329Z,18.20
2023-06-27T23:02:50.265Z,18.10
2023-06-27T23:04:53.728Z,18.00
2023-06-27T23:06:57.045Z,17.80
2023-06-27T23:09:01.846Z,17.60
2023-06-27T23:11:05.364Z,17.90
2023-06-27T23:13:10.295Z,17.90
2023-06-27T23:15:13.634Z,17.80
2023-06-27T23:17:16.972Z,17.70
2023-06-27T23:19:22.931Z,17.60
2023-06-27T23:21:26.724Z,17.80
2023-06-27T23:23:30.981Z,17.90
2023-06-27T23:25:43.656Z,17.90
2023-06-27T23:27:46.932Z,17.90
2023-06-27T23:29:53.583Z,17.90
2023-06-27T23:31:59.710Z,17.80
2023-06-27T23:34:05.510Z,17.80
2023-06-27T23:36:09.504Z,17.90
2023-06-27T23:38:12.796Z,18.00
2023-06-27T23:40:16.105Z,18.10
2023-06-27T23:42:19.465Z,18.00
2023-06-27T23:44:22.759Z,17.80
2023-06-27T23:46:28.266Z,17.90
2023-06-27T23:48:31.828Z,17.60
2023-06-27T23:50:35.826Z,17.60
2023-06-27T23:52:39.316Z,17.80
2023-06-27T23:54:42.736Z,17.90
2023-06-27T23:56:46.088Z,17.80
2023-06-27T23:58:49.420Z,17.90
